Time;durP1;ratioP1;P1;durP2;ratioP2;P2;SDS_P1;SDS_P2;PMS_P1;PMS_P2;Temp;Humidity;BMP_temperature;BMP_pressure;BME280_temperature;BME280_humidity;BME280_pressure;Samples;Min_cycle;Max_cycle;Signal;HPM_P1;HPM_P2
2023/09/04 00:01:19;;;;;;;6.25;4.35;;;17.90;99.90;;;;;;5076779;28;20223;-70
2023/09/04 00:04:08;;;;;;;5.63;4.00;;;17.80;99.90;;;;;;5076099;28;20224;-69
2023/09/04 00:06:58;;;;;;;6.15;4.32;;;17.80;99.90;;;;;;5078149;28;20216;-68
2023/09/04 00:09:48;;;;;;;8.68;4.10;;;17.70;99.90;;;;;;5092597;28;20348;-68
2023/09/04 00:12:37;;;;;;;5.80;4.15;;;17.70;99.90;;;;;;5085677;28;20228;-69
2023/09/04 00:15:26;;;;;;;5.65;4.20;;;17.60;99.90;;;;;;5076039;28;20232;-68
2023/09/04 00:18:15;;;;;;;5.80;3.80;;;17.60;99.90;;;;;;5088282;28;20286;-69
2023/09/04 00:21:04;;;;;;;6.45;4.20;;;17.70;99.90;;;;;;5098194;28;20673;-69
2023/09/04 00:23:53;;;;;;;6.88;4.28;;;17.70;99.90;;;;;;5082395;28;21026;-70
2023/09/04 00:26:43;;;;;;;6.20;3.90;;;17.40;99.90;;;;;;5096858;28;20230;-69
2023/09/04 00:29:32;;;;;;;5.78;4.18;;;17.40;99.90;;;;;;5095687;28;20587;-69
2023/09/04 00:32:21;;;;;;;5.85;3.95;;;17.40;99.90;;;;;;5103642;28;20233;-69
2023/09/04 00:35:13;;;;;;;10.63;4.50;;;17.50;99.90;;;;;;5085969;28;20250;-69
2023/09/04 00:38:02;;;;;;;7.35;3.80;;;17.40;99.90;;;;;;5102854;28;20827;-71
2023/09/04 00:40:51;;;;;;;5.10;4.05;;;17.40;99.90;;;;;;5085155;28;20227;-71
2023/09/04 00:43:41;;;;;;;6.68;4.07;;;17.40;99.90;;;;;;5067272;28;20236;-70
2023/09/04 00:46:30;;;;;;;5.45;3.70;;;17.30;99.90;;;;;;5078497;28;20758;-70
2023/09/04 00:49:21;;;;;;;5.35;3.85;;;17.30;99.90;;;;;;5079333;28;20344;-70
2023/09/04 00:52:10;;;;;;;4.35;3.85;;;17.20;99.90;;;;;;5088015;28;20235;-70
2023/09/04 00:55:03;;;;;;;5.38;4.10;;;17.30;99.90;;;;;;5079517;28;20285;-71
2023/09/04 00:57:53;;;;;;;5.43;4.20;;;17.30;99.90;;;;;;5099582;28;20609;-70
2023/09/04 01:00:44;;;;;;;7.43;4.15;;;17.10;99.90;;;;;;5099918;28;20242;-69
2023/09/04 01:03:34;;;;;;;6.28;4.28;;;17.10;99.90;;;;;;5076957;28;20215;-71
2023/09/04 01:06:23;;;;;;;7.53;4.07;;;17.10;99.90;;;;;;5098223;27;20259;-71
2023/09/04 01:09:11;;;;;;;6.13;4.43;;;17.10;99.90;;;;;;5100735;27;20222;-70
2023/09/04 01:12:05;;;;;;;7.47;4.18;;;17.00;99.90;;;;;;5081083;28;20318;-70
2023/09/04 01:14:56;;;;;;;9.13;3.95;;;17.00;99.90;;;;;;5090246;28;20290;-70
2023/09/04 01:17:49;;;;;;;4.85;3.97;;;16.90;99.90;;;;;;5079873;28;20230;-70
2023/09/04 01:20:40;;;;;;;6.18;4.10;;;17.00;99.90;;;;;;5084947;28;20323;-70
2023/09/04 01:23:29;;;;;;;6.38;3.88;;;17.00;99.90;;;;;;5097369;28;20219;-70
2023/09/04 01:26:26;;;;;;;6.30;4.00;;;17.00;99.90;;;;;;5095319;28;20219;-71
2023/09/04 01:29:21;;;;;;;7.63;4.03;;;16.90;99.90;;;;;;5098152;28;20315;-70
2023/09/04 01:32:15;;;;;;;7.88;3.92;;;16.90;99.90;;;;;;5092089;28;20312;-70
2023/09/04 01:35:06;;;;;;;6.68;4.03;;;17.00;99.90;;;;;;5080049;28;20238;-70
2023/09/04 01:37:58;;;;;;;8.73;3.60;;;17.00;99.90;;;;;;5081731;28;20925;-70
2023/09/04 01:40:51;;;;;;;7.68;3.70;;;17.00;99.90;;;;;;5099845;28;21022;-70
2023/09/04 01:43:40;;;;;;;5.57;3.85;;;17.00;99.90;;;;;;5091265;28;20323;-69
2023/09/04 01:46:31;;;;;;;7.65;3.90;;;16.80;99.90;;;;;;5086965;28;20243;-67
2023/09/04 01:49:21;;;;;;;7.03;3.70;;;16.80;99.90;;;;;;5088338;28;20734;-70
2023/09/04 01:52:09;;;;;;;8.75;4.13;;;16.80;99.90;;;;;;5088992;28;20345;-70
2023/09/04 01:55:00;;;;;;;6.85;4.00;;;16.80;99.90;;;;;;5096694;27;20214;-69
2023/09/04 01:57:49;;;;;;;7.00;3.90;;;16.70;99.90;;;;;;5100763;27;20920;-69
2023/09/04 02:00:38;;;;;;;7.45;3.67;;;16.70;99.90;;;;;;5081762;28;20223;-69
2023/09/04 02:03:27;;;;;;;8.90;4.00;;;16.80;99.90;;;;;;5078599;28;20228;-70
2023/09/04 02:06:16;;;;;;;9.00;3.97;;;16.80;99.90;;;;;;5098359;28;20219;-71
2023/09/04 02:09:06;;;;;;;6.88;3.67;;;16.70;99.90;;;;;;5098030;27;20709;-70
2023/09/04 02:11:56;;;;;;;7.18;3.83;;;16.70;99.90;;;;;;5075097;28;20249;-70
2023/09/04 02:14:45;;;;;;;8.23;3.97;;;16.60;99.90;;;;;;5095669;27;20258;-70
2023/09/04 02:17:34;;;;;;;7.82;3.80;;;16.50;99.90;;;;;;5078611;28;20254;-71
2023/09/04 02:20:23;;;;;;;7.50;3.50;;;16.40;99.90;;;;;;5103531;28;20304;-69
2023/09/04 02:23:12;;;;;;;10.32;3.38;;;16.40;99.90;;;;;;5084554;28;20220;-71
2023/09/04 02:26:02;;;;;;;7.78;3.10;;;16.40;99.90;;;;;;5102375;27;20207;-70
2023/09/04 02:28:52;;;;;;;6.45;3.50;;;16.50;99.90;;;;;;5072579;28;20219;-70
2023/09/04 02:31:42;;;;;;;7.40;3.65;;;16.60;99.90;;;;;;5068893;28;20250;-70
2023/09/04 02:34:33;;;;;;;5.03;3.15;;;16.50;99.90;;;;;;5080935;28;20304;-70
2023/09/04 02:37:23;;;;;;;8.05;3.53;;;16.60;99.90;;;;;;5075778;28;20223;-70
2023/09/04 02:40:13;;;;;;;5.90;3.22;;;16.60;99.90;;;;;;5099671;28;20508;-70
2023/09/04 02:43:04;;;;;;;7.50;3.55;;;16.60;99.90;;;;;;5103693;27;20772;-71
2023/09/04 02:45:57;;;;;;;6.55;3.92;;;16.70;99.90;;;;;;5085605;28;20547;-69
2023/09/04 02:48:46;;;;;;;9.63;3.75;;;16.70;99.90;;;;;;5094354;28;20234;-69
2023/09/04 02:51:35;;;;;;;6.18;3.88;;;16.60;99.90;;;;;;5098382;28;20234;-70
2023/09/04 02:54:24;;;;;;;7.72;4.03;;;16.50;99.90;;;;;;5096611;28;20215;-69
2023/09/04 02:57:12;;;;;;;9.43;4.45;;;16.60;99.90;;;;;;5093394;28;20233;-70
2023/09/04 03:00:05;;;;;;;7.47;4.70;;;16.60;99.90;;;;;;5095729;28;20355;-70
2023/09/04 03:02:57;;;;;;;7.43;4.45;;;16.60;99.90;;;;;;5075481;28;20276;-69
2023/09/04 03:05:46;;;;;;;9.55;4.30;;;16.60;99.90;;;;;;5094163;28;20230;-69
2023/09/04 03:08:34;;;;;;;9.60;4.60;;;16.50;99.90;;;;;;5079585;28;20371;-69
2023/09/04 03:11:23;;;;;;;9.00;5.00;;;16.60;99.90;;;;;;5093965;28;20223;-69
2023/09/04 03:14:13;;;;;;;6.93;4.75;;;16.50;99.90;;;;;;5080881;28;20215;-70
2023/09/04 03:17:04;;;;;;;7.05;4.95;;;16.60;99.90;;;;;;5101311;28;20227;-71
2023/09/04 03:19:56;;;;;;;7.38;5.18;;;16.50;99.90;;;;;;5079330;28;20343;-70
2023/09/04 03:22:45;;;;;;;11.38;5.60;;;16.50;99.90;;;;;;5056557;28;20239;-70
2023/09/04 03:25:35;;;;;;;9.13;5.72;;;16.50;99.90;;;;;;5063586;28;20227;-73
2023/09/04 03:28:25;;;;;;;14.50;5.40;;;16.50;99.90;;;;;;5077141;28;20242;-71
2023/09/04 03:31:15;;;;;;;11.27;5.50;;;16.40;99.90;;;;;;5080770;28;20266;-67
2023/09/04 03:34:06;;;;;;;9.85;5.35;;;16.40;99.90;;;;;;5081570;28;20211;-68
2023/09/04 03:36:56;;;;;;;10.05;5.03;;;16.30;99.90;;;;;;5080951;28;20757;-68
2023/09/04 03:39:45;;;;;;;10.27;4.40;;;16.20;99.90;;;;;;5094739;28;20893;-68
2023/09/04 03:42:34;;;;;;;7.25;4.03;;;16.30;99.90;;;;;;5077982;28;20238;-71
2023/09/04 03:45:23;;;;;;;6.38;3.67;;;16.20;99.90;;;;;;5084528;28;20253;-71
2023/09/04 03:48:12;;;;;;;8.02;3.97;;;16.30;99.90;;;;;;5080912;28;20215;-70
2023/09/04 03:51:04;;;;;;;9.80;4.25;;;16.30;99.90;;;;;;5082970;28;20256;-71
2023/09/04 03:54:01;;;;;;;6.88;4.15;;;16.20;99.90;;;;;;5079874;28;20646;-71
2023/09/04 03:56:51;;;;;;;7.32;4.55;;;16.20;99.90;;;;;;5100653;28;20282;-72
2023/09/04 03:59:40;;;;;;;10.02;4.88;;;16.30;99.90;;;;;;5091486;28;20229;-68
2023/09/04 04:02:30;;;;;;;8.77;4.20;;;16.40;99.90;;;;;;5074804;28;20215;-70
2023/09/04 04:05:20;;;;;;;5.88;4.07;;;16.30;99.90;;;;;;5093449;28;20230;-67
2023/09/04 04:08:09;;;;;;;7.78;4.40;;;16.30;99.90;;;;;;5097301;28;20223;-69
2023/09/04 04:11:00;;;;;;;8.52;4.10;;;16.20;99.90;;;;;;5096907;28;20702;-69
2023/09/04 04:13:49;;;;;;;6.60;4.38;;;16.30;99.90;;;;;;5092368;28;20242;-68
2023/09/04 04:16:38;;;;;;;8.50;4.72;;;16.30;99.90;;;;;;5096320;28;20215;-70
2023/09/04 04:19:27;;;;;;;8.27;4.30;;;16.40;99.90;;;;;;5091774;28;20383;-71
2023/09/04 04:22:16;;;;;;;8.80;4.43;;;16.40;99.90;;;;;;5092135;28;20857;-70
2023/09/04 04:25:06;;;;;;;9.82;4.38;;;16.50;99.90;;;;;;5084581;28;20226;-71
2023/09/04 04:27:56;;;;;;;8.57;4.50;;;16.40;99.90;;;;;;5073388;28;20264;-71
2023/09/04 04:30:45;;;;;;;8.15;4.72;;;16.20;99.90;;;;;;5065399;28;20332;-71
2023/09/04 04:33:34;;;;;;;8.02;4.50;;;16.30;99.90;;;;;;5099154;28;20231;-70
2023/09/04 04:36:23;;;;;;;9.52;4.80;;;16.50;99.90;;;;;;5082011;28;20226;-70
2023/09/04 04:39:13;;;;;;;8.40;4.47;;;16.50;99.90;;;;;;5079510;28;20227;-69
2023/09/04 04:42:05;;;;;;;8.63;4.95;;;16.50;99.90;;;;;;5094581;28;20697;-69
2023/09/04 04:44:56;;;;;;;9.18;4.28;;;16.70;99.90;;;;;;5094574;28;20253;-70
2023/09/04 04:47:45;;;;;;;9.38;4.63;;;16.70;99.90;;;;;;5077389;28;20250;-69
2023/09/04 04:50:34;;;;;;;8.00;4.72;;;16.70;99.90;;;;;;5099298;28;20688;-71
2023/09/04 04:53:24;;;;;;;7.30;3.83;;;16.70;99.90;;;;;;5081637;28;20211;-70
2023/09/04 04:56:13;;;;;;;7.47;3.80;;;16.70;99.90;;;;;;5086107;28;20873;-70
2023/09/04 04:59:02;;;;;;;6.05;4.10;;;16.80;99.90;;;;;;5080976;28;20709;-71
2023/09/04 05:01:54;;;;;;;10.38;3.75;;;17.00;99.90;;;;;;5094487;28;20332;-67
2023/09/04 05:04:45;;;;;;;8.57;3.65;;;17.10;99.90;;;;;;5079569;28;20235;-68
2023/09/04 05:07:37;;;;;;;5.75;3.58;;;17.00;99.90;;;;;;5086332;28;20219;-68
2023/09/04 05:10:27;;;;;;;10.27;3.67;;;16.90;99.90;;;;;;5081365;28;20218;-68
2023/09/04 05:13:17;;;;;;;7.18;3.15;;;17.00;99.90;;;;;;5085572;28;20223;-69
2023/09/04 05:16:06;;;;;;;6.47;3.22;;;17.20;99.90;;;;;;5096653;28;20230;-69
2023/09/04 05:18:59;;;;;;;12.25;3.65;;;17.30;99.90;;;;;;5079703;28;20725;-69
2023/09/04 05:21:48;;;;;;;6.57;3.42;;;17.20;99.90;;;;;;5087645;28;20266;-70
2023/09/04 05:24:45;;;;;;;9.18;3.58;;;17.60;99.90;;;;;;5068467;28;20292;-71
2023/09/04 05:27:34;;;;;;;8.95;3.55;;;17.50;99.90;;;;;;5067596;28;20235;-72
2023/09/04 05:30:22;;;;;;;8.00;3.72;;;17.40;99.90;;;;;;5077203;28;20256;-71
2023/09/04 05:33:11;;;;;;;8.30;3.47;;;17.30;99.90;;;;;;5069963;28;20307;-72
2023/09/04 05:36:02;;;;;;;7.75;3.53;;;17.30;99.90;;;;;;5078121;28;20582;-70
2023/09/04 05:38:51;;;;;;;7.75;3.28;;;17.10;99.90;;;;;;5073772;28;20223;-69
2023/09/04 05:41:39;;;;;;;8.30;3.47;;;17.10;99.90;;;;;;5075624;28;20754;-70
2023/09/04 05:44:29;;;;;;;8.95;3.40;;;17.10;99.90;;;;;;5077472;28;20235;-70
2023/09/04 05:47:18;;;;;;;8.73;3.50;;;17.10;99.90;;;;;;5079820;28;20227;-69
2023/09/04 05:50:11;;;;;;;9.73;3.38;;;17.10;99.90;;;;;;5082320;28;20243;-69
2023/09/04 05:53:01;;;;;;;10.80;3.30;;;17.00;99.90;;;;;;5076879;28;20227;-71
2023/09/04 05:56:04;;;;;;;10.23;3.20;;;17.20;99.90;;;;;;5095664;28;20693;-71
2023/09/04 05:58:53;;;;;;;8.07;3.72;;;17.30;99.90;;;;;;5097360;28;21076;-71
2023/09/04 06:01:42;;;;;;;9.80;2.97;;;17.40;99.90;;;;;;5094486;28;20720;-71
2023/09/04 06:04:31;;;;;;;9.65;3.55;;;17.40;99.90;;;;;;5083046;28;20242;-66
2023/09/04 06:07:20;;;;;;;7.10;3.13;;;17.50;99.90;;;;;;5092139;28;20243;-72
2023/09/04 06:10:11;;;;;;;6.70;2.95;;;17.40;99.90;;;;;;5085602;27;20313;-70
2023/09/04 06:13:00;;;;;;;7.22;2.75;;;17.40;99.90;;;;;;5085403;27;20234;-70
2023/09/04 06:15:51;;;;;;;7.43;3.17;;;17.40;99.90;;;;;;5095722;28;20277;-70
2023/09/04 06:18:40;;;;;;;7.47;2.85;;;17.40;99.90;;;;;;5072967;28;20226;-71
2023/09/04 06:21:29;;;;;;;7.95;2.97;;;17.50;99.90;;;;;;5072533;28;20231;-71
2023/09/04 06:24:18;;;;;;;7.03;3.00;;;17.60;99.90;;;;;;5095879;28;20500;-70
2023/09/04 06:27:08;;;;;;;8.48;3.10;;;17.60;99.90;;;;;;5076801;28;20216;-71
2023/09/04 06:29:57;;;;;;;6.88;3.22;;;17.80;99.90;;;;;;5065530;28;20268;-71
2023/09/04 06:32:46;;;;;;;8.98;2.88;;;17.60;99.90;;;;;;5071098;28;20980;-69
2023/09/04 06:35:35;;;;;;;6.88;3.40;;;17.70;99.90;;;;;;5102878;28;20230;-70
2023/09/04 06:38:24;;;;;;;7.68;3.33;;;17.70;99.90;;;;;;5095065;28;20235;-71
2023/09/04 06:41:13;;;;;;;10.60;3.28;;;17.80;99.90;;;;;;5093089;28;20215;-69
2023/09/04 06:44:07;;;;;;;9.57;3.00;;;17.80;99.90;;;;;;5088984;28;20220;-68
2023/09/04 06:46:56;;;;;;;6.88;2.85;;;17.70;99.90;;;;;;5093976;28;20230;-69
2023/09/04 06:49:45;;;;;;;9.85;3.00;;;17.60;99.90;;;;;;5084212;28;20232;-69
2023/09/04 06:52:34;;;;;;;10.02;3.35;;;17.70;99.90;;;;;;5081490;28;20670;-69
2023/09/04 06:55:23;;;;;;;9.30;3.17;;;17.90;99.90;;;;;;5098377;28;20945;-72
2023/09/04 06:58:11;;;;;;;7.53;2.78;;;18.00;99.90;;;;;;5097027;28;20743;-71
2023/09/04 07:01:04;;;;;;;7.80;3.13;;;17.90;99.90;;;;;;5099830;28;20231;-71
2023/09/04 07:03:53;;;;;;;7.68;3.17;;;18.00;99.90;;;;;;5094199;28;20230;-72
2023/09/04 07:06:42;;;;;;;6.38;2.90;;;18.20;99.90;;;;;;5097405;28;20222;-71
2023/09/04 07:09:31;;;;;;;7.60;3.10;;;18.00;99.90;;;;;;5100886;28;20238;-71
2023/09/04 07:12:20;;;;;;;10.38;3.10;;;18.10;99.90;;;;;;5097069;28;20617;-69
2023/09/04 07:15:09;;;;;;;6.55;2.70;;;18.20;99.90;;;;;;5098437;28;20226;-71
2023/09/04 07:18:01;;;;;;;9.45;3.10;;;18.20;99.90;;;;;;5094581;28;20235;-72
2023/09/04 07:20:51;;;;;;;8.57;3.05;;;18.30;99.90;;;;;;5077746;28;20317;-74
2023/09/04 07:23:40;;;;;;;7.28;3.22;;;18.40;99.90;;;;;;5080927;28;20610;-72
2023/09/04 07:26:29;;;;;;;7.47;2.55;;;18.60;99.90;;;;;;5091716;28;20223;-73
2023/09/04 07:29:19;;;;;;;6.97;2.90;;;19.00;99.90;;;;;;5092443;28;20316;-72
2023/09/04 07:32:07;;;;;;;7.57;2.72;;;19.10;99.90;;;;;;5096690;28;20245;-70
2023/09/04 07:34:58;;;;;;;6.70;2.90;;;18.90;99.90;;;;;;5082104;28;20273;-70
2023/09/04 07:37:47;;;;;;;13.27;3.28;;;19.00;99.90;;;;;;5099503;27;20328;-71
2023/09/04 07:40:36;;;;;;;6.78;3.00;;;18.90;99.90;;;;;;5090257;28;20583;-70
2023/09/04 07:43:25;;;;;;;9.52;3.58;;;19.10;99.90;;;;;;5094782;28;20243;-70
2023/09/04 07:46:16;;;;;;;5.43;2.90;;;19.30;99.90;;;;;;5086214;28;20263;-70
2023/09/04 07:49:05;;;;;;;7.68;2.88;;;19.10;99.90;;;;;;5092501;28;20785;-70
2023/09/04 07:51:55;;;;;;;6.95;2.95;;;18.90;99.90;;;;;;5094840;28;20240;-71
2023/09/04 07:54:44;;;;;;;13.02;3.35;;;18.90;99.90;;;;;;5095894;28;20719;-71
2023/09/04 07:57:33;;;;;;;6.57;2.83;;;19.00;99.90;;;;;;5081990;28;20233;-72
2023/09/04 08:00:22;;;;;;;6.18;3.30;;;19.30;99.90;;;;;;5080046;28;20299;-73
2023/09/04 08:03:11;;;;;;;10.05;2.92;;;19.40;99.90;;;;;;5091917;28;20286;-73
2023/09/04 08:06:00;;;;;;;6.75;3.08;;;19.10;99.90;;;;;;5092887;28;20341;-73
2023/09/04 08:08:52;;;;;;;7.00;2.65;;;19.30;99.90;;;;;;5094468;28;20231;-71
2023/09/04 08:11:41;;;;;;;8.88;3.22;;;19.50;99.90;;;;;;5062560;28;20695;-74
2023/09/04 08:14:35;;;;;;;8.88;3.08;;;19.60;99.90;;;;;;5094872;28;20317;-71
2023/09/04 08:17:25;;;;;;;8.30;2.42;;;19.60;99.90;;;;;;5095235;28;20215;-74
2023/09/04 08:20:16;;;;;;;12.73;3.28;;;19.40;99.90;;;;;;5087593;28;20306;-71
2023/09/04 08:23:06;;;;;;;6.28;2.60;;;19.50;99.90;;;;;;5092831;28;20587;-72
2023/09/04 08:26:00;;;;;;;7.05;2.72;;;19.50;99.90;;;;;;5104140;28;20238;-70
2023/09/04 08:28:49;;;;;;;6.75;3.08;;;19.60;99.90;;;;;;5096037;28;20246;-71
2023/09/04 08:31:38;;;;;;;8.85;3.15;;;19.30;99.90;;;;;;5083601;28;20381;-71
2023/09/04 08:34:27;;;;;;;10.48;3.00;;;19.40;99.90;;;;;;5075690;28;20924;-70
2023/09/04 08:37:16;;;;;;;8.65;3.08;;;19.50;99.90;;;;;;5071817;28;20682;-71
2023/09/04 08:40:06;;;;;;;6.63;2.75;;;19.50;99.90;;;;;;5094567;28;20298;-73
2023/09/04 08:42:58;;;;;;;5.10;2.83;;;19.60;99.90;;;;;;5093179;28;20222;-72
2023/09/04 08:45:48;;;;;;;7.80;2.80;;;19.70;99.90;;;;;;5092419;28;20356;-72
2023/09/04 08:48:40;;;;;;;6.15;3.03;;;19.70;99.90;;;;;;5097732;28;20269;-73
2023/09/04 08:51:30;;;;;;;7.47;2.78;;;20.20;99.90;;;;;;5097356;28;20241;-72
2023/09/04 08:54:20;;;;;;;6.18;2.63;;;20.50;99.90;;;;;;5102411;28;20720;-73
2023/09/04 08:57:09;;;;;;;5.97;3.25;;;20.70;99.90;;;;;;5096212;28;20223;-72
2023/09/04 08:59:59;;;;;;;6.05;2.85;;;20.60;99.90;;;;;;5094880;28;20227;-72
2023/09/04 09:02:49;;;;;;;7.72;3.30;;;20.80;99.90;;;;;;5106062;28;20261;-70
2023/09/04 09:05:39;;;;;;;7.82;3.20;;;21.10;99.90;;;;;;5096546;28;20226;-71
2023/09/04 09:08:30;;;;;;;9.93;3.13;;;21.00;99.90;;;;;;5104511;28;20352;-72
2023/09/04 09:11:19;;;;;;;7.28;3.55;;;21.10;99.90;;;;;;5100263;28;20729;-72
2023/09/04 09:14:08;;;;;;;10.48;3.10;;;20.90;99.90;;;;;;5101774;28;20355;-73
2023/09/04 09:17:05;;;;;;;8.40;2.70;;;21.20;99.90;;;;;;5101202;28;20649;-72
2023/09/04 09:19:53;;;;;;;4.75;2.70;;;21.20;99.90;;;;;;5101778;28;20239;-72
2023/09/04 09:22:51;;;;;;;8.93;2.90;;;21.40;99.90;;;;;;5093708;28;20224;-72
2023/09/04 09:25:39;;;;;;;4.95;2.90;;;21.70;99.90;;;;;;5100745;28;20225;-73
2023/09/04 09:28:29;;;;;;;6.35;2.80;;;21.70;99.90;;;;;;5097569;28;20368;-74
2023/09/04 09:31:22;;;;;;;6.90;2.78;;;21.70;99.90;;;;;;5096903;27;20845;-71
2023/09/04 09:34:12;;;;;;;11.23;3.20;;;21.40;99.90;;;;;;5097441;28;20254;-72
2023/09/04 09:37:01;;;;;;;7.45;3.55;;;21.10;99.90;;;;;;5098818;28;20219;-72
2023/09/04 09:39:50;;;;;;;7.75;4.18;;;21.10;99.90;;;;;;5093982;28;20386;-72
2023/09/04 09:42:39;;;;;;;7.88;3.70;;;21.00;99.90;;;;;;5081709;28;20235;-73
2023/09/04 09:45:32;;;;;;;9.32;3.25;;;21.00;99.90;;;;;;5069771;28;20239;-72
2023/09/04 09:48:23;;;;;;;8.15;3.42;;;21.30;99.90;;;;;;5081592;28;20234;-72
2023/09/04 09:51:15;;;;;;;11.02;4.13;;;21.30;99.90;;;;;;5084106;28;20706;-73
2023/09/04 09:54:05;;;;;;;7.18;3.50;;;21.20;99.90;;;;;;5076492;28;20463;-72
2023/09/04 09:56:54;;;;;;;6.32;3.05;;;21.50;99.90;;;;;;5099569;28;20672;-71
2023/09/04 09:59:44;;;;;;;5.97;3.00;;;21.50;99.90;;;;;;5103623;28;20439;-72
2023/09/04 10:02:33;;;;;;;6.90;3.05;;;21.40;99.90;;;;;;5099293;28;20264;-73
2023/09/04 10:05:24;;;;;;;7.18;3.40;;;21.30;99.90;;;;;;5087371;28;20245;-72
2023/09/04 10:08:14;;;;;;;5.88;3.28;;;21.40;99.90;;;;;;5101812;28;20241;-71
2023/09/04 10:11:08;;;;;;;4.68;2.50;;;21.40;99.90;;;;;;5082841;28;20661;-71
2023/09/04 10:14:03;;;;;;;5.32;2.85;;;21.20;99.90;;;;;;5102076;28;20234;-72
2023/09/04 10:16:57;;;;;;;5.15;2.50;;;21.00;99.90;;;;;;5098903;28;20250;-72
2023/09/04 10:19:48;;;;;;;5.25;2.50;;;20.70;99.90;;;;;;5098590;28;20238;-72
2023/09/04 10:22:41;;;;;;;2.90;2.35;;;20.60;99.90;;;;;;5088154;28;20235;-72
2023/09/04 10:25:42;;;;;;;7.47;2.80;;;20.60;99.90;;;;;;5094380;28;20229;-72
2023/09/04 10:28:35;;;;;;;4.75;2.63;;;20.60;99.90;;;;;;5096647;28;20573;-73
2023/09/04 10:31:35;;;;;;;4.20;2.40;;;20.60;99.90;;;;;;5088282;28;20210;-72
2023/09/04 10:34:25;;;;;;;5.80;2.90;;;20.80;99.90;;;;;;5097904;28;20234;-73
2023/09/04 10:37:16;;;;;;;7.13;2.75;;;20.80;99.90;;;;;;5093321;28;20398;-73
2023/09/04 10:40:09;;;;;;;5.07;2.53;;;20.90;99.90;;;;;;5095869;28;20237;-73
2023/09/04 10:43:03;;;;;;;4.05;2.10;;;21.20;99.90;;;;;;5099699;28;20227;-72
2023/09/04 10:46:05;;;;;;;8.38;2.67;;;21.30;99.90;;;;;;5100013;28;20594;-73
2023/09/04 10:48:54;;;;;;;8.38;3.35;;;21.60;99.90;;;;;;5085705;28;20219;-71
2023/09/04 10:51:48;;;;;;;8.07;3.10;;;21.90;99.90;;;;;;5094814;28;20231;-72
2023/09/04 10:54:37;;;;;;;6.18;2.70;;;22.10;99.90;;;;;;5073140;28;20258;-71
2023/09/04 10:57:26;;;;;;;9.20;2.92;;;22.00;99.90;;;;;;5094800;28;20214;-72
2023/09/04 11:00:28;;;;;;;7.18;3.10;;;21.60;99.90;;;;;;5093984;28;20219;-73
2023/09/04 11:03:20;;;;;;;7.78;4.60;;;21.30;99.90;;;;;;5093678;28;20574;-72
2023/09/04 11:06:11;;;;;;;8.10;2.90;;;21.70;99.90;;;;;;5089183;28;20247;-73
2023/09/04 11:09:02;;;;;;;7.53;2.95;;;21.80;99.90;;;;;;5079083;28;20230;-71
2023/09/04 11:11:58;;;;;;;5.10;2.72;;;21.80;99.90;;;;;;5094580;28;20230;-73
2023/09/04 11:14:48;;;;;;;8.55;3.17;;;21.70;99.90;;;;;;5077959;28;20231;-70
2023/09/04 11:17:40;;;;;;;5.57;2.78;;;21.70;99.90;;;;;;5098269;28;20294;-71
2023/09/04 11:20:44;;;;;;;3.90;2.45;;;21.70;99.90;;;;;;5092426;28;20840;-71
2023/09/04 11:23:35;;;;;;;7.30;2.88;;;21.80;99.90;;;;;;5084623;28;20233;-72
2023/09/04 11:26:24;;;;;;;7.22;2.60;;;22.10;99.90;;;;;;5083940;28;20234;-71
2023/09/04 11:29:12;;;;;;;7.55;3.00;;;22.10;99.90;;;;;;5075956;28;20212;-71
2023/09/04 11:32:02;;;;;;;6.05;2.60;;;22.00;99.90;;;;;;5075814;28;20220;-72
2023/09/04 11:34:58;;;;;;;6.57;2.55;;;22.00;99.90;;;;;;5077421;28;20220;-71
2023/09/04 11:37:47;;;;;;;6.45;2.58;;;22.00;99.90;;;;;;5074472;28;20794;-71
2023/09/04 11:40:36;;;;;;;8.85;2.70;;;21.70;99.90;;;;;;5084825;28;20219;-72
2023/09/04 11:43:26;;;;;;;4.47;2.58;;;21.60;99.90;;;;;;5094125;28;20348;-71
2023/09/04 11:46:17;;;;;;;5.95;3.03;;;21.70;99.90;;;;;;5098369;28;20215;-73
2023/09/04 11:49:08;;;;;;;6.22;2.47;;;21.90;99.90;;;;;;5095492;28;21066;-72
2023/09/04 11:51:58;;;;;;;5.68;2.50;;;21.90;99.90;;;;;;5095678;28;20343;-73
2023/09/04 11:54:47;;;;;;;5.57;2.70;;;22.00;99.90;;;;;;5100287;28;20230;-73
2023/09/04 11:57:36;;;;;;;3.55;2.33;;;22.00;99.90;;;;;;5092849;28;20538;-72
2023/09/04 12:00:25;;;;;;;5.25;2.47;;;22.00;99.90;;;;;;5093964;28;20230;-74
2023/09/04 12:03:14;;;;;;;5.18;2.63;;;22.10;99.90;;;;;;5099889;28;20238;-73
2023/09/04 12:06:06;;;;;;;7.07;2.60;;;22.10;99.90;;;;;;5089717;28;20223;-72
2023/09/04 12:08:57;;;;;;;4.05;2.30;;;22.20;99.90;;;;;;5092171;28;20265;-73
2023/09/04 12:11:46;;;;;;;5.93;2.55;;;22.30;99.90;;;;;;5098719;28;20227;-72
2023/09/04 12:14:35;;;;;;;4.95;2.58;;;22.40;99.90;;;;;;5098376;28;20260;-72
2023/09/04 12:17:24;;;;;;;5.05;2.33;;;22.40;99.90;;;;;;5097194;28;20215;-73
2023/09/04 12:20:16;;;;;;;6.72;2.50;;;22.40;99.90;;;;;;5102262;28;20284;-73
2023/09/04 12:23:05;;;;;;;2.70;2.10;;;22.20;99.90;;;;;;5093208;28;20701;-73
2023/09/04 12:25:55;;;;;;;3.78;2.45;;;22.10;99.90;;;;;;5100539;28;20238;-72
2023/09/04 12:28:51;;;;;;;8.18;2.80;;;22.20;99.90;;;;;;5089056;28;20258;-73
2023/09/04 12:32:04;;;;;;;8.20;2.53;;;22.00;99.90;;;;;;5087829;28;20231;-73
2023/09/04 12:35:01;;;;;;;6.57;2.42;;;21.80;99.90;;;;;;5104226;28;20223;-72
2023/09/04 12:37:53;;;;;;;4.10;2.65;;;21.80;99.90;;;;;;5093031;28;20238;-72
2023/09/04 12:40:41;;;;;;;5.25;2.45;;;21.80;99.90;;;;;;5092366;28;20622;-74
2023/09/04 12:43:32;;;;;;;4.50;2.65;;;21.90;99.90;;;;;;5076607;28;20441;-72
2023/09/04 12:46:21;;;;;;;5.40;2.25;;;22.10;99.90;;;;;;5073715;28;20208;-73
2023/09/04 12:49:10;;;;;;;10.98;2.67;;;22.20;99.90;;;;;;5071356;28;20228;-73
2023/09/04 12:51:59;;;;;;;5.28;2.67;;;22.30;99.90;;;;;;5081515;28;20231;-73
2023/09/04 12:54:48;;;;;;;6.00;2.88;;;22.40;99.90;;;;;;5077552;28;20757;-73
2023/09/04 12:57:38;;;;;;;5.82;2.60;;;22.30;99.90;;;;;;5097507;28;20280;-73
2023/09/04 13:00:28;;;;;;;5.93;2.42;;;22.10;99.90;;;;;;5100376;28;20218;-71
2023/09/04 13:03:17;;;;;;;3.80;2.58;;;21.90;99.90;;;;;;5095630;28;20306;-72
2023/09/04 13:06:07;;;;;;;6.00;2.53;;;21.80;99.90;;;;;;5095820;28;20226;-73
2023/09/04 13:08:56;;;;;;;6.85;2.42;;;21.80;99.90;;;;;;5103355;28;20223;-73
2023/09/04 13:11:45;;;;;;;6.97;2.58;;;21.50;99.90;;;;;;5098838;28;20227;-73
2023/09/04 13:14:34;;;;;;;5.70;2.85;;;21.50;99.90;;;;;;5080962;28;20224;-75
2023/09/04 13:17:24;;;;;;;7.57;2.85;;;21.40;99.90;;;;;;5073529;28;20700;-73
2023/09/04 13:20:14;;;;;;;4.75;2.75;;;21.30;99.90;;;;;;5081303;28;20261;-70
2023/09/04 13:23:03;;;;;;;4.65;2.60;;;21.50;99.90;;;;;;5076118;28;20373;-70
2023/09/04 13:25:52;;;;;;;5.53;2.60;;;21.50;99.90;;;;;;5096721;28;20296;-70
2023/09/04 13:28:41;;;;;;;5.78;2.80;;;21.70;99.90;;;;;;5088083;28;20267;-70
2023/09/04 13:31:30;;;;;;;6.28;2.25;;;21.70;99.90;;;;;;5079114;28;20296;-72
2023/09/04 13:34:21;;;;;;;4.63;2.75;;;21.70;99.90;;;;;;5075421;28;20239;-72
2023/09/04 13:37:10;;;;;;;5.18;2.42;;;21.80;99.90;;;;;;5074628;28;20228;-71
2023/09/04 13:39:59;;;;;;;7.20;2.85;;;21.90;99.90;;;;;;5071405;28;20223;-73
2023/09/04 13:42:48;;;;;;;3.28;2.28;;;21.90;99.90;;;;;;5099639;28;20291;-70
2023/09/04 13:45:37;;;;;;;6.10;2.28;;;21.80;99.90;;;;;;5087278;28;20229;-71
2023/09/04 13:48:29;;;;;;;8.02;2.70;;;21.70;99.90;;;;;;5095158;28;20702;-71
2023/09/04 13:51:21;;;;;;;7.55;2.50;;;21.60;99.90;;;;;;5102382;28;20226;-72
2023/09/04 13:54:11;;;;;;;4.43;2.80;;;21.60;99.90;;;;;;5089517;28;20658;-74
2023/09/04 13:57:00;;;;;;;5.55;3.15;;;21.50;99.90;;;;;;5082891;28;20375;-72
2023/09/04 13:59:50;;;;;;;7.32;2.97;;;21.50;99.90;;;;;;5076512;28;20235;-73
2023/09/04 14:02:39;;;;;;;6.57;2.70;;;21.40;99.90;;;;;;5096796;28;20291;-72
2023/09/04 14:05:29;;;;;;;6.90;2.70;;;21.40;99.90;;;;;;5092628;28;20215;-72
2023/09/04 14:08:19;;;;;;;4.65;2.70;;;21.20;99.90;;;;;;5087584;28;20356;-73
2023/09/04 14:11:08;;;;;;;4.65;3.08;;;21.20;99.90;;;;;;5094436;27;21037;-72
2023/09/04 14:13:57;;;;;;;7.13;2.95;;;21.10;99.90;;;;;;5100478;28;20222;-74
2023/09/04 14:16:46;;;;;;;7.10;2.85;;;20.90;99.90;;;;;;5091712;28;20690;-73
2023/09/04 14:19:35;;;;;;;8.07;3.15;;;20.90;93.80;;;;;;5103495;28;20325;-74
2023/09/04 14:22:23;;;;;;;7.32;2.53;;;21.00;94.20;;;;;;5095746;28;20491;-73
2023/09/04 14:25:17;;;;;;;6.97;2.97;;;21.10;94.20;;;;;;5101698;28;20338;-71
2023/09/04 14:28:06;;;;;;;5.47;2.80;;;21.10;99.90;;;;;;5079013;28;20214;-70
2023/09/04 14:30:55;;;;;;;5.50;2.85;;;21.10;99.90;;;;;;5099206;28;20238;-71
2023/09/04 14:33:43;;;;;;;8.18;3.55;;;21.10;99.90;;;;;;5079553;28;20218;-70
2023/09/04 14:36:32;;;;;;;4.63;2.65;;;21.10;99.90;;;;;;5099158;28;20222;-71
2023/09/04 14:39:21;;;;;;;6.35;2.85;;;21.10;96.00;;;;;;5095799;28;20674;-73
2023/09/04 14:42:11;;;;;;;6.10;2.70;;;21.10;95.00;;;;;;5101632;28;20219;-72
2023/09/04 14:45:00;;;;;;;5.20;3.00;;;21.10;99.90;;;;;;5097231;28;20361;-69